sensor_id;sensor_type;location;lat;lon;timestamp;P1;durP1;ratioP1;P2;durP2;ratioP2
11222;SDS011;5668;52.012;8.724;2023-03-11T00:01:21;4.07;;;3.60;;
11222;SDS011;5668;52.012;8.724;2023-03-11T00:03:48;3.60;;;3.30;;
11222;SDS011;5668;52.012;8.724;2023-03-11T00:06:15;3.77;;;3.30;;
11222;SDS011;5668;52.012;8.724;2023-03-11T00:08:44;3.97;;;3.67;;
11222;SDS011;5668;52.012;8.724;2023-03-11T00:11:11;4.17;;;3.00;;
11222;SDS011;5668;52.012;8.724;2023-03-11T00:13:38;3.40;;;3.10;;
11222;SDS011;5668;52.012;8.724;2023-03-11T00:16:05;3.40;;;3.10;;
11222;SDS011;5668;52.012;8.724;2023-03-11T00:18:33;4.23;;;3.13;;
11222;SDS011;5668;52.012;8.724;2023-03-11T00:21:00;3.93;;;3.10;;
11222;SDS011;5668;52.012;8.724;2023-03-11T00:23:27;3.50;;;2.97;;
11222;SDS011;5668;52.012;8.724;2023-03-11T00:25:56;3.30;;;3.00;;
11222;SDS011;5668;52.012;8.724;2023-03-11T00:28:27;3.13;;;2.70;;
11222;SDS011;5668;52.012;8.724;2023-03-11T00:30:54;3.73;;;2.90;;
11222;SDS011;5668;52.012;8.724;2023-03-11T00:33:21;2.90;;;2.70;;
11222;SDS011;5668;52.012;8.724;2023-03-11T00:35:49;3.63;;;2.90;;
11222;SDS011;5668;52.012;8.724;2023-03-11T00:38:16;3.10;;;2.80;;
11222;SDS011;5668;52.012;8.724;2023-03-11T00:40:45;4.40;;;2.80;;
11222;SDS011;5668;52.012;8.724;2023-03-11T00:43:15;5.67;;;3.50;;
11222;SDS011;5668;52.012;8.724;2023-03-11T00:45:42;6.30;;;2.77;;
11222;SDS011;5668;52.012;8.724;2023-03-11T00:48:10;3.87;;;2.80;;
11222;SDS011;5668;52.012;8.724;2023-03-11T00:50:39;6.03;;;3.07;;
11222;SDS011;5668;52.012;8.724;2023-03-11T00:53:09;2.80;;;2.60;;
11222;SDS011;5668;52.012;8.724;2023-03-11T00:55:36;3.13;;;2.73;;
11222;SDS011;5668;52.012;8.724;2023-03-11T00:58:04;4.37;;;2.90;;
11222;SDS011;5668;52.012;8.724;2023-03-11T01:00:34;3.30;;;3.00;;
11222;SDS011;5668;52.012;8.724;2023-03-11T01:03:01;2.73;;;2.50;;
11222;SDS011;5668;52.012;8.724;2023-03-11T01:05:29;3.30;;;2.93;;
11222;SDS011;5668;52.012;8.724;2023-03-11T01:07:58;3.37;;;2.77;;
11222;SDS011;5668;52.012;8.724;2023-03-11T01:10:26;2.80;;;2.60;;
11222;SDS011;5668;52.012;8.724;2023-03-11T01:12:54;2.57;;;2.37;;
11222;SDS011;5668;52.012;8.724;2023-03-11T01:15:22;3.93;;;2.77;;
11222;SDS011;5668;52.012;8.724;2023-03-11T01:17:52;4.17;;;2.67;;
11222;SDS011;5668;52.012;8.724;2023-03-11T01:20:19;3.40;;;2.50;;
11222;SDS011;5668;52.012;8.724;2023-03-11T01:22:47;4.00;;;2.77;;
11222;SDS011;5668;52.012;8.724;2023-03-11T01:25:15;4.23;;;3.03;;
11222;SDS011;5668;52.012;8.724;2023-03-11T01:27:43;4.27;;;2.77;;
11222;SDS011;5668;52.012;8.724;2023-03-11T01:30:12;3.40;;;2.80;;
11222;SDS011;5668;52.012;8.724;2023-03-11T01:32:40;2.60;;;2.40;;
11222;SDS011;5668;52.012;8.724;2023-03-11T01:35:10;3.53;;;2.73;;
11222;SDS011;5668;52.012;8.724;2023-03-11T01:37:38;3.80;;;3.33;;
11222;SDS011;5668;52.012;8.724;2023-03-11T01:40:05;3.30;;;2.73;;
11222;SDS011;5668;52.012;8.724;2023-03-11T01:42:36;4.20;;;2.80;;
11222;SDS011;5668;52.012;8.724;2023-03-11T01:45:09;3.30;;;2.80;;
11222;SDS011;5668;52.012;8.724;2023-03-11T01:47:52;3.97;;;3.10;;
11222;SDS011;5668;52.012;8.724;2023-03-11T01:50:20;3.63;;;3.00;;
11222;SDS011;5668;52.012;8.724;2023-03-11T01:52:48;3.60;;;2.90;;
11222;SDS011;5668;52.012;8.724;2023-03-11T01:55:16;5.63;;;3.23;;
11222;SDS011;5668;52.012;8.724;2023-03-11T01:57:44;5.60;;;3.50;;
11222;SDS011;5668;52.012;8.724;2023-03-11T02:00:14;3.43;;;3.13;;
11222;SDS011;5668;52.012;8.724;2023-03-11T02:02:42;6.13;;;3.50;;
11222;SDS011;5668;52.012;8.724;2023-03-11T02:05:14;5.10;;;3.47;;
11222;SDS011;5668;52.012;8.724;2023-03-11T02:07:48;4.03;;;3.63;;
11222;SDS011;5668;52.012;8.724;2023-03-11T02:10:16;4.37;;;3.93;;
11222;SDS011;5668;52.012;8.724;2023-03-11T02:12:47;3.87;;;3.47;;
11222;SDS011;5668;52.012;8.724;2023-03-11T02:15:17;4.03;;;3.63;;
11222;SDS011;5668;52.012;8.724;2023-03-11T02:17:44;4.40;;;3.77;;
11222;SDS011;5668;52.012;8.724;2023-03-11T02:20:15;5.17;;;4.00;;
11222;SDS011;5668;52.012;8.724;2023-03-11T02:22:53;4.40;;;4.00;;
11222;SDS011;5668;52.012;8.724;2023-03-11T02:25:23;5.13;;;3.70;;
11222;SDS011;5668;52.012;8.724;2023-03-11T02:28:06;4.80;;;4.40;;
11222;SDS011;5668;52.012;8.724;2023-03-11T02:30:36;4.70;;;4.10;;
11222;SDS011;5668;52.012;8.724;2023-03-11T02:33:06;4.60;;;4.17;;
11222;SDS011;5668;52.012;8.724;2023-03-11T02:35:35;5.63;;;4.37;;
11222;SDS011;5668;52.012;8.724;2023-03-11T02:38:03;4.87;;;3.87;;
11222;SDS011;5668;52.012;8.724;2023-03-11T02:40:35;5.40;;;4.40;;
11222;SDS011;5668;52.012;8.724;2023-03-11T02:43:18;6.23;;;4.20;;
11222;SDS011;5668;52.012;8.724;2023-03-11T02:45:55;5.67;;;4.43;;
11222;SDS011;5668;52.012;8.724;2023-03-11T02:48:24;6.70;;;4.93;;
11222;SDS011;5668;52.012;8.724;2023-03-11T02:50:53;7.03;;;5.07;;
11222;SDS011;5668;52.012;8.724;2023-03-11T02:53:24;9.10;;;4.37;;
11222;SDS011;5668;52.012;8.724;2023-03-11T02:55:57;5.17;;;4.67;;
11222;SDS011;5668;52.012;8.724;2023-03-11T02:58:26;5.43;;;4.83;;
11222;SDS011;5668;52.012;8.724;2023-03-11T03:00:56;4.77;;;4.37;;
11222;SDS011;5668;52.012;8.724;2023-03-11T03:03:24;4.77;;;4.27;;
11222;SDS011;5668;52.012;8.724;2023-03-11T03:05:51;5.00;;;4.50;;
11222;SDS011;5668;52.012;8.724;2023-03-11T03:08:18;5.67;;;4.67;;
11222;SDS011;5668;52.012;8.724;2023-03-11T03:10:45;4.63;;;4.23;;
11222;SDS011;5668;52.012;8.724;2023-03-11T03:13:13;6.73;;;4.90;;
11222;SDS011;5668;52.012;8.724;2023-03-11T03:15:41;6.10;;;4.50;;
11222;SDS011;5668;52.012;8.724;2023-03-11T03:18:08;6.33;;;4.53;;
11222;SDS011;5668;52.012;8.724;2023-03-11T03:20:36;4.80;;;4.00;;
11222;SDS011;5668;52.012;8.724;2023-03-11T03:23:03;5.03;;;4.30;;
11222;SDS011;5668;52.012;8.724;2023-03-11T03:25:30;4.77;;;3.83;;
11222;SDS011;5668;52.012;8.724;2023-03-11T03:27:57;4.33;;;3.93;;
11222;SDS011;5668;52.012;8.724;2023-03-11T03:30:25;4.67;;;4.13;;
11222;SDS011;5668;52.012;8.724;2023-03-11T03:32:54;4.00;;;3.40;;
11222;SDS011;5668;52.012;8.724;2023-03-11T03:35:21;5.40;;;3.70;;
11222;SDS011;5668;52.012;8.724;2023-03-11T03:37:49;7.70;;;3.53;;
11222;SDS011;5668;52.012;8.724;2023-03-11T03:40:16;4.00;;;3.53;;
11222;SDS011;5668;52.012;8.724;2023-03-11T03:42:44;4.30;;;3.90;;
11222;SDS011;5668;52.012;8.724;2023-03-11T03:45:11;6.70;;;4.00;;
11222;SDS011;5668;52.012;8.724;2023-03-11T03:47:39;6.20;;;4.20;;
11222;SDS011;5668;52.012;8.724;2023-03-11T03:50:08;4.47;;;4.03;;
11222;SDS011;5668;52.012;8.724;2023-03-11T03:52:37;5.47;;;4.03;;
11222;SDS011;5668;52.012;8.724;2023-03-11T03:55:05;6.07;;;4.47;;
11222;SDS011;5668;52.012;8.724;2023-03-11T03:57:32;5.13;;;4.63;;
11222;SDS011;5668;52.012;8.724;2023-03-11T04:00:00;5.10;;;4.23;;
11222;SDS011;5668;52.012;8.724;2023-03-11T04:02:28;6.93;;;4.60;;
11222;SDS011;5668;52.012;8.724;2023-03-11T04:04:56;6.43;;;4.20;;
11222;SDS011;5668;52.012;8.724;2023-03-11T04:07:25;5.03;;;4.10;;
11222;SDS011;5668;52.012;8.724;2023-03-11T04:09:52;5.60;;;4.40;;
11222;SDS011;5668;52.012;8.724;2023-03-11T04:12:19;5.80;;;4.10;;
11222;SDS011;5668;52.012;8.724;2023-03-11T04:14:46;4.80;;;4.30;;
11222;SDS011;5668;52.012;8.724;2023-03-11T04:17:13;6.57;;;4.20;;
11222;SDS011;5668;52.012;8.724;2023-03-11T04:19:41;6.80;;;3.90;;
11222;SDS011;5668;52.012;8.724;2023-03-11T04:22:09;4.17;;;3.67;;
11222;SDS011;5668;52.012;8.724;2023-03-11T04:24:37;5.73;;;3.83;;
11222;SDS011;5668;52.012;8.724;2023-03-11T04:27:05;3.90;;;3.50;;
11222;SDS011;5668;52.012;8.724;2023-03-11T04:29:32;6.63;;;4.40;;
11222;SDS011;5668;52.012;8.724;2023-03-11T04:31:59;6.17;;;4.27;;
11222;SDS011;5668;52.012;8.724;2023-03-11T04:34:26;5.43;;;3.80;;
11222;SDS011;5668;52.012;8.724;2023-03-11T04:36:53;5.33;;;3.93;;
11222;SDS011;5668;52.012;8.724;2023-03-11T04:39:21;4.43;;;3.43;;
11222;SDS011;5668;52.012;8.724;2023-03-11T04:41:49;8.07;;;4.47;;
11222;SDS011;5668;52.012;8.724;2023-03-11T04:44:17;4.07;;;3.63;;
11222;SDS011;5668;52.012;8.724;2023-03-11T04:46:44;5.87;;;4.07;;
11222;SDS011;5668;52.012;8.724;2023-03-11T04:49:11;3.63;;;3.33;;
11222;SDS011;5668;52.012;8.724;2023-03-11T04:51:38;3.90;;;3.37;;
11222;SDS011;5668;52.012;8.724;2023-03-11T04:54:06;6.40;;;4.10;;
11222;SDS011;5668;52.012;8.724;2023-03-11T04:56:34;5.93;;;3.97;;
11222;SDS011;5668;52.012;8.724;2023-03-11T04:59:02;5.00;;;3.27;;
11222;SDS011;5668;52.012;8.724;2023-03-11T05:01:29;4.90;;;3.60;;
11222;SDS011;5668;52.012;8.724;2023-03-11T05:03:57;4.93;;;4.00;;
11222;SDS011;5668;52.012;8.724;2023-03-11T05:06:24;4.17;;;3.67;;
11222;SDS011;5668;52.012;8.724;2023-03-11T05:08:51;5.23;;;3.83;;
11222;SDS011;5668;52.012;8.724;2023-03-11T05:11:18;4.93;;;4.03;;
11222;SDS011;5668;52.012;8.724;2023-03-11T05:13:46;4.90;;;4.13;;
11222;SDS011;5668;52.012;8.724;2023-03-11T05:16:14;4.50;;;4.00;;
11222;SDS011;5668;52.012;8.724;2023-03-11T05:18:41;5.77;;;3.80;;
11222;SDS011;5668;52.012;8.724;2023-03-11T05:21:09;5.23;;;4.00;;
11222;SDS011;5668;52.012;8.724;2023-03-11T05:23:36;4.47;;;4.00;;
11222;SDS011;5668;52.012;8.724;2023-03-11T05:26:03;10.33;;;3.77;;
11222;SDS011;5668;52.012;8.724;2023-03-11T05:28:31;4.60;;;3.47;;
11222;SDS011;5668;52.012;8.724;2023-03-11T05:30:58;5.53;;;3.93;;
11222;SDS011;5668;52.012;8.724;2023-03-11T05:33:26;5.70;;;3.60;;
11222;SDS011;5668;52.012;8.724;2023-03-11T05:36:01;7.67;;;3.60;;
11222;SDS011;5668;52.012;8.724;2023-03-11T05:38:30;7.00;;;3.67;;
11222;SDS011;5668;52.012;8.724;2023-03-11T05:40:57;4.87;;;3.57;;
11222;SDS011;5668;52.012;8.724;2023-03-11T05:43:24;4.50;;;3.47;;
11222;SDS011;5668;52.012;8.724;2023-03-11T05:45:52;5.30;;;3.50;;
11222;SDS011;5668;52.012;8.724;2023-03-11T05:48:19;5.00;;;3.70;;
11222;SDS011;5668;52.012;8.724;2023-03-11T05:50:47;4.17;;;3.47;;
11222;SDS011;5668;52.012;8.724;2023-03-11T05:53:15;5.23;;;3.70;;
11222;SDS011;5668;52.012;8.724;2023-03-11T05:55:42;2.73;;;2.53;;
11222;SDS011;5668;52.012;8.724;2023-03-11T05:58:09;3.97;;;3.13;;
11222;SDS011;5668;52.012;8.724;2023-03-11T06:00:36;3.83;;;2.80;;
11222;SDS011;5668;52.012;8.724;2023-03-11T06:03:04;7.57;;;3.03;;
11222;SDS011;5668;52.012;8.724;2023-03-11T06:05:31;2.97;;;2.53;;
11222;SDS011;5668;52.012;8.724;2023-03-11T06:07:59;6.10;;;2.70;;
11222;SDS011;5668;52.012;8.724;2023-03-11T06:10:27;4.20;;;2.90;;
11222;SDS011;5668;52.012;8.724;2023-03-11T06:12:54;5.47;;;3.03;;
11222;SDS011;5668;52.012;8.724;2023-03-11T06:15:21;5.10;;;2.87;;
11222;SDS011;5668;52.012;8.724;2023-03-11T06:17:48;4.17;;;2.90;;
11222;SDS011;5668;52.012;8.724;2023-03-11T06:20:16;2.97;;;2.47;;
11222;SDS011;5668;52.012;8.724;2023-03-11T06:22:46;5.57;;;3.10;;
11222;SDS011;5668;52.012;8.724;2023-03-11T06:25:16;3.77;;;2.43;;
11222;SDS011;5668;52.012;8.724;2023-03-11T06:27:43;3.40;;;2.80;;
11222;SDS011;5668;52.012;8.724;2023-03-11T06:30:15;2.90;;;2.60;;
11222;SDS011;5668;52.012;8.724;2023-03-11T06:32:43;3.27;;;2.77;;
11222;SDS011;5668;52.012;8.724;2023-03-11T06:35:10;5.03;;;2.83;;
11222;SDS011;5668;52.012;8.724;2023-03-11T06:37:38;3.67;;;2.60;;
11222;SDS011;5668;52.012;8.724;2023-03-11T06:40:06;4.97;;;2.67;;
11222;SDS011;5668;52.012;8.724;2023-03-11T06:42:38;3.67;;;2.40;;
11222;SDS011;5668;52.012;8.724;2023-03-11T06:45:05;4.63;;;2.50;;
11222;SDS011;5668;52.012;8.724;2023-03-11T06:47:33;3.80;;;2.47;;
11222;SDS011;5668;52.012;8.724;2023-03-11T06:50:01;7.57;;;2.77;;
11222;SDS011;5668;52.012;8.724;2023-03-11T06:52:31;6.53;;;2.90;;
11222;SDS011;5668;52.012;8.724;2023-03-11T06:54:58;4.20;;;2.77;;
11222;SDS011;5668;52.012;8.724;2023-03-11T06:57:26;5.50;;;2.67;;
11222;SDS011;5668;52.012;8.724;2023-03-11T06:59:54;7.73;;;3.03;;
11222;SDS011;5668;52.012;8.724;2023-03-11T07:02:22;3.53;;;2.57;;
11222;SDS011;5668;52.012;8.724;2023-03-11T07:04:49;4.77;;;2.70;;
11222;SDS011;5668;52.012;8.724;2023-03-11T07:07:17;3.00;;;2.23;;
11222;SDS011;5668;52.012;8.724;2023-03-11T07:09:45;4.83;;;2.60;;
11222;SDS011;5668;52.012;8.724;2023-03-11T07:12:12;3.67;;;2.47;;
11222;SDS011;5668;52.012;8.724;2023-03-11T07:14:40;2.73;;;2.03;;
11222;SDS011;5668;52.012;8.724;2023-03-11T07:17:08;2.37;;;2.17;;
11222;SDS011;5668;52.012;8.724;2023-03-11T07:19:35;5.33;;;2.33;;
11222;SDS011;5668;52.012;8.724;2023-03-11T07:22:04;6.30;;;2.43;;
11222;SDS011;5668;52.012;8.724;2023-03-11T07:24:31;3.50;;;2.10;;
11222;SDS011;5668;52.012;8.724;2023-03-11T07:26:58;2.70;;;2.07;;
11222;SDS011;5668;52.012;8.724;2023-03-11T07:29:25;3.00;;;2.30;;
11222;SDS011;5668;52.012;8.724;2023-03-11T07:31:53;4.43;;;2.30;;
11222;SDS011;5668;52.012;8.724;2023-03-11T07:34:21;2.27;;;2.07;;
11222;SDS011;5668;52.012;8.724;2023-03-11T07:36:48;4.70;;;2.47;;
11222;SDS011;5668;52.012;8.724;2023-03-11T07:39:16;4.33;;;2.27;;
11222;SDS011;5668;52.012;8.724;2023-03-11T07:41:44;4.10;;;2.50;;
11222;SDS011;5668;52.012;8.724;2023-03-11T07:44:12;6.23;;;3.30;;
11222;SDS011;5668;52.012;8.724;2023-03-11T07:46:40;4.97;;;2.40;;
11222;SDS011;5668;52.012;8.724;2023-03-11T07:49:08;5.23;;;2.57;;
11222;SDS011;5668;52.012;8.724;2023-03-11T07:51:37;5.47;;;2.23;;
11222;SDS011;5668;52.012;8.724;2023-03-11T07:54:06;4.33;;;2.63;;
11222;SDS011;5668;52.012;8.724;2023-03-11T07:56:35;3.63;;;2.20;;
11222;SDS011;5668;52.012;8.724;2023-03-11T07:59:03;4.40;;;2.40;;
11222;SDS011;5668;52.012;8.724;2023-03-11T08:01:31;6.27;;;2.70;;
11222;SDS011;5668;52.012;8.724;2023-03-11T08:04:02;4.90;;;2.27;;
11222;SDS011;5668;52.012;8.724;2023-03-11T08:06:31;2.50;;;2.30;;
11222;SDS011;5668;52.012;8.724;2023-03-11T08:09:02;2.47;;;2.27;;
11222;SDS011;5668;52.012;8.724;2023-03-11T08:11:30;6.13;;;2.40;;
11222;SDS011;5668;52.012;8.724;2023-03-11T08:13:58;3.13;;;2.10;;
11222;SDS011;5668;52.012;8.724;2023-03-11T08:16:25;4.83;;;2.23;;
11222;SDS011;5668;52.012;8.724;2023-03-11T08:18:53;4.20;;;2.37;;
11222;SDS011;5668;52.012;8.724;2023-03-11T08:21:21;6.60;;;2.33;;
11222;SDS011;5668;52.012;8.724;2023-03-11T08:23:50;3.53;;;1.93;;
11222;SDS011;5668;52.012;8.724;2023-03-11T08:26:23;3.87;;;2.20;;
11222;SDS011;5668;52.012;8.724;2023-03-11T08:28:50;5.63;;;2.40;;
11222;SDS011;5668;52.012;8.724;2023-03-11T08:31:18;3.13;;;2.00;;
11222;SDS011;5668;52.012;8.724;2023-03-11T08:33:49;3.43;;;2.00;;
11222;SDS011;5668;52.012;8.724;2023-03-11T08:36:17;4.33;;;2.20;;
11222;SDS011;5668;52.012;8.724;2023-03-11T08:38:46;4.57;;;2.23;;
11222;SDS011;5668;52.012;8.724;2023-03-11T08:41:13;3.83;;;2.20;;
11222;SDS011;5668;52.012;8.724;2023-03-11T08:43:42;3.37;;;2.00;;
11222;SDS011;5668;52.012;8.724;2023-03-11T08:46:12;4.43;;;2.20;;
11222;SDS011;5668;52.012;8.724;2023-03-11T08:48:42;5.13;;;2.13;;
11222;SDS011;5668;52.012;8.724;2023-03-11T08:51:10;2.90;;;1.90;;
11222;SDS011;5668;52.012;8.724;2023-03-11T08:53:38;5.30;;;2.40;;
11222;SDS011;5668;52.012;8.724;2023-03-11T08:56:06;4.27;;;2.10;;
11222;SDS011;5668;52.012;8.724;2023-03-11T08:58:33;4.13;;;2.10;;
11222;SDS011;5668;52.012;8.724;2023-03-11T09:01:02;4.40;;;2.00;;
11222;SDS011;5668;52.012;8.724;2023-03-11T09:03:30;4.03;;;2.33;;
11222;SDS011;5668;52.012;8.724;2023-03-11T09:05:57;6.43;;;2.20;;
11222;SDS011;5668;52.012;8.724;2023-03-11T09:08:25;4.80;;;2.00;;
11222;SDS011;5668;52.012;8.724;2023-03-11T09:10:53;3.27;;;1.97;;
11222;SDS011;5668;52.012;8.724;2023-03-11T09:13:20;2.00;;;1.80;;
11222;SDS011;5668;52.012;8.724;2023-03-11T09:15:48;5.37;;;2.53;;
11222;SDS011;5668;52.012;8.724;2023-03-11T09:18:17;3.07;;;2.07;;
11222;SDS011;5668;52.012;8.724;2023-03-11T09:20:45;2.97;;;2.10;;
11222;SDS011;5668;52.012;8.724;2023-03-11T09:23:13;5.07;;;2.10;;
11222;SDS011;5668;52.012;8.724;2023-03-11T09:25:42;3.87;;;2.20;;
11222;SDS011;5668;52.012;8.724;2023-03-11T09:28:09;4.27;;;2.30;;
11222;SDS011;5668;52.012;8.724;2023-03-11T09:30:36;4.87;;;2.03;;
11222;SDS011;5668;52.012;8.724;2023-03-11T09:33:04;3.67;;;2.00;;
11222;SDS011;5668;52.012;8.724;2023-03-11T09:35:33;4.27;;;3.07;;
11222;SDS011;5668;52.012;8.724;2023-03-11T09:38:00;2.90;;;1.93;;
11222;SDS011;5668;52.012;8.724;2023-03-11T09:40:31;3.20;;;1.90;;
11222;SDS011;5668;52.012;8.724;2023-03-11T09:43:10;3.73;;;1.90;;
11222;SDS011;5668;52.012;8.724;2023-03-11T09:45:48;4.83;;;2.20;;
11222;SDS011;5668;52.012;8.724;2023-03-11T09:48:21;3.20;;;2.10;;
11222;SDS011;5668;52.012;8.724;2023-03-11T09:50:57;2.80;;;1.83;;
11222;SDS011;5668;52.012;8.724;2023-03-11T09:53:34;4.20;;;2.30;;
11222;SDS011;5668;52.012;8.724;2023-03-11T09:56:06;3.70;;;1.80;;
11222;SDS011;5668;52.012;8.724;2023-03-11T09:58:35;4.63;;;2.30;;
11222;SDS011;5668;52.012;8.724;2023-03-11T10:01:10;3.40;;;2.00;;
11222;SDS011;5668;52.012;8.724;2023-03-11T10:03:42;5.00;;;2.20;;
11222;SDS011;5668;52.012;8.724;2023-03-11T10:06:13;4.47;;;2.30;;
11222;SDS011;5668;52.012;8.724;2023-03-11T10:08:43;6.00;;;2.50;;
11222;SDS011;5668;52.012;8.724;2023-03-11T10:11:28;4.07;;;2.03;;
11222;SDS011;5668;52.012;8.724;2023-03-11T10:14:16;2.43;;;1.60;;
11222;SDS011;5668;52.012;8.724;2023-03-11T10:17:00;6.97;;;1.80;;
11222;SDS011;5668;52.012;8.724;2023-03-11T10:19:37;3.17;;;1.57;;
11222;SDS011;5668;52.012;8.724;2023-03-11T10:22:13;4.97;;;1.97;;
11222;SDS011;5668;52.012;8.724;2023-03-11T10:24:55;3.00;;;1.90;;
11222;SDS011;5668;52.012;8.724;2023-03-11T10:27:29;4.23;;;1.90;;
11222;SDS011;5668;52.012;8.724;2023-03-11T10:30:04;4.03;;;2.00;;
11222;SDS011;5668;52.012;8.724;2023-03-11T10:32:39;4.73;;;1.80;;
11222;SDS011;5668;52.012;8.724;2023-03-11T10:35:14;4.73;;;2.20;;
11222;SDS011;5668;52.012;8.724;2023-03-11T10:37:47;7.57;;;2.23;;
11222;SDS011;5668;52.012;8.724;2023-03-11T10:40:25;2.47;;;1.40;;
11222;SDS011;5668;52.012;8.724;2023-03-11T10:42:55;4.07;;;1.50;;
11222;SDS011;5668;52.012;8.724;2023-03-11T10:45:26;3.53;;;1.73;;
11222;SDS011;5668;52.012;8.724;2023-03-11T10:47:58;2.67;;;1.37;;
11222;SDS011;5668;52.012;8.724;2023-03-11T10:50:25;2.40;;;1.60;;
11222;SDS011;5668;52.012;8.724;2023-03-11T10:53:04;2.67;;;1.67;;
11222;SDS011;5668;52.012;8.724;2023-03-11T10:55:34;2.20;;;1.60;;
11222;SDS011;5668;52.012;8.724;2023-03-11T10:58:11;6.07;;;1.67;;
11222;SDS011;5668;52.012;8.724;2023-03-11T11:00:39;4.33;;;1.50;;
11222;SDS011;5668;52.012;8.724;2023-03-11T11:03:11;4.17;;;1.60;;
11222;SDS011;5668;52.012;8.724;2023-03-11T11:05:44;2.07;;;1.57;;
11222;SDS011;5668;52.012;8.724;2023-03-11T11:08:25;2.60;;;1.63;;
11222;SDS011;5668;52.012;8.724;2023-03-11T11:10:53;3.50;;;1.50;;
11222;SDS011;5668;52.012;8.724;2023-03-11T11:13:22;2.93;;;1.40;;
11222;SDS011;5668;52.012;8.724;2023-03-11T11:15:54;3.03;;;1.30;;
11222;SDS011;5668;52.012;8.724;2023-03-11T11:18:25;4.63;;;1.50;;
11222;SDS011;5668;52.012;8.724;2023-03-11T11:20:59;4.23;;;1.50;;
11222;SDS011;5668;52.012;8.724;2023-03-11T11:23:34;3.53;;;1.60;;
11222;SDS011;5668;52.012;8.724;2023-03-11T11:26:06;2.73;;;1.60;;
11222;SDS011;5668;52.012;8.724;2023-03-11T11:28:40;2.47;;;1.30;;
11222;SDS011;5668;52.012;8.724;2023-03-11T11:31:18;3.00;;;1.40;;
11222;SDS011;5668;52.012;8.724;2023-03-11T11:33:48;3.70;;;1.60;;
11222;SDS011;5668;52.012;8.724;2023-03-11T11:36:17;16.10;;;4.07;;
11222;SDS011;5668;52.012;8.724;2023-03-11T11:38:49;9.97;;;2.40;;
11222;SDS011;5668;52.012;8.724;2023-03-11T11:41:19;3.57;;;1.50;;
11222;SDS011;5668;52.012;8.724;2023-03-11T11:43:48;6.00;;;1.90;;
11222;SDS011;5668;52.012;8.724;2023-03-11T11:46:18;4.90;;;1.40;;
11222;SDS011;5668;52.012;8.724;2023-03-11T11:48:54;3.67;;;1.40;;
11222;SDS011;5668;52.012;8.724;2023-03-11T11:51:29;3.03;;;1.23;;
11222;SDS011;5668;52.012;8.724;2023-03-11T11:54:01;4.07;;;1.87;;
11222;SDS011;5668;52.012;8.724;2023-03-11T11:56:39;4.13;;;1.60;;
11222;SDS011;5668;52.012;8.724;2023-03-11T11:59:08;3.83;;;1.70;;
11222;SDS011;5668;52.012;8.724;2023-03-11T12:01:41;6.27;;;1.43;;
11222;SDS011;5668;52.012;8.724;2023-03-11T12:04:26;2.40;;;1.20;;
11222;SDS011;5668;52.012;8.724;2023-03-11T12:07:26;2.83;;;1.50;;
11222;SDS011;5668;52.012;8.724;2023-03-11T12:10:17;4.33;;;1.47;;
11222;SDS011;5668;52.012;8.724;2023-03-11T12:12:52;3.13;;;1.40;;
11222;SDS011;5668;52.012;8.724;2023-03-11T12:15:38;3.30;;;1.30;;
11222;SDS011;5668;52.012;8.724;2023-03-11T12:18:10;3.13;;;1.43;;
11222;SDS011;5668;52.012;8.724;2023-03-11T12:20:43;3.37;;;1.37;;
11222;SDS011;5668;52.012;8.724;2023-03-11T12:23:16;6.37;;;1.63;;
11222;SDS011;5668;52.012;8.724;2023-03-11T12:25:50;2.97;;;1.50;;
11222;SDS011;5668;52.012;8.724;2023-03-11T12:28:39;6.07;;;1.40;;
11222;SDS011;5668;52.012;8.724;2023-03-11T12:31:10;3.43;;;1.23;;
11222;SDS011;5668;52.012;8.724;2023-03-11T12:33:39;4.63;;;1.40;;
11222;SDS011;5668;52.012;8.724;2023-03-11T12:36:19;2.77;;;1.83;;
11222;SDS011;5668;52.012;8.724;2023-03-11T12:38:48;2.07;;;1.30;;
11222;SDS011;5668;52.012;8.724;2023-03-11T12:41:29;2.70;;;1.50;;
11222;SDS011;5668;52.012;8.724;2023-03-11T12:44:04;2.50;;;1.30;;
11222;SDS011;5668;52.012;8.724;2023-03-11T12:49:49;1.97;;;1.17;;
11222;SDS011;5668;52.012;8.724;2023-03-11T12:52:28;3.57;;;1.40;;
11222;SDS011;5668;52.012;8.724;2023-03-11T12:58:00;2.83;;;1.40;;
11222;SDS011;5668;52.012;8.724;2023-03-11T13:00:56;4.07;;;1.43;;
11222;SDS011;5668;52.012;8.724;2023-03-11T13:03:46;11.10;;;1.73;;
11222;SDS011;5668;52.012;8.724;2023-03-11T13:09:27;4.23;;;1.33;;
11222;SDS011;5668;52.012;8.724;2023-03-11T13:11:54;4.13;;;1.40;;
11222;SDS011;5668;52.012;8.724;2023-03-11T13:14:25;5.10;;;1.40;;
11222;SDS011;5668;52.012;8.724;2023-03-11T13:16:54;2.10;;;1.33;;
11222;SDS011;5668;52.012;8.724;2023-03-11T13:19:36;3.23;;;1.37;;
11222;SDS011;5668;52.012;8.724;2023-03-11T13:25:27;1.10;;;1.00;;
11222;SDS011;5668;52.012;8.724;2023-03-11T13:27:59;2.80;;;1.30;;
11222;SDS011;5668;52.012;8.724;2023-03-11T13:30:49;4.17;;;1.47;;
11222;SDS011;5668;52.012;8.724;2023-03-11T13:33:23;2.67;;;1.17;;
11222;SDS011;5668;52.012;8.724;2023-03-11T13:36:08;3.23;;;1.20;;
11222;SDS011;5668;52.012;8.724;2023-03-11T13:38:53;2.60;;;1.30;;
11222;SDS011;5668;52.012;8.724;2023-03-11T13:41:35;2.20;;;1.40;;
11222;SDS011;5668;52.012;8.724;2023-03-11T13:44:10;2.57;;;1.30;;
11222;SDS011;5668;52.012;8.724;2023-03-11T13:46:41;2.50;;;1.27;;
11222;SDS011;5668;52.012;8.724;2023-03-11T13:49:15;3.60;;;1.73;;
11222;SDS011;5668;52.012;8.724;2023-03-11T13:51:55;3.17;;;1.10;;
11222;SDS011;5668;52.012;8.724;2023-03-11T13:54:29;2.80;;;1.60;;
11222;SDS011;5668;52.012;8.724;2023-03-11T13:57:03;2.37;;;1.37;;
11222;SDS011;5668;52.012;8.724;2023-03-11T13:59:31;3.30;;;1.40;;
11222;SDS011;5668;52.012;8.724;2023-03-11T14:02:03;2.47;;;1.10;;
11222;SDS011;5668;52.012;8.724;2023-03-11T14:04:40;2.70;;;1.50;;
11222;SDS011;5668;52.012;8.724;2023-03-11T14:07:13;2.57;;;1.37;;
11222;SDS011;5668;52.012;8.724;2023-03-11T14:09:49;2.87;;;1.60;;
11222;SDS011;5668;52.012;8.724;2023-03-11T14:12:16;3.33;;;1.43;;
11222;SDS011;5668;52.012;8.724;2023-03-11T14:14:47;3.30;;;1.37;;
11222;SDS011;5668;52.012;8.724;2023-03-11T14:17:19;3.87;;;1.80;;
11222;SDS011;5668;52.012;8.724;2023-03-11T14:20:03;4.07;;;1.60;;
11222;SDS011;5668;52.012;8.724;2023-03-11T14:22:31;5.77;;;1.50;;
11222;SDS011;5668;52.012;8.724;2023-03-11T14:24:59;3.47;;;1.70;;
11222;SDS011;5668;52.012;8.724;2023-03-11T14:27:31;3.47;;;1.50;;
11222;SDS011;5668;52.012;8.724;2023-03-11T14:29:58;3.00;;;1.50;;
11222;SDS011;5668;52.012;8.724;2023-03-11T14:32:27;5.53;;;1.70;;
11222;SDS011;5668;52.012;8.724;2023-03-11T14:34:56;3.17;;;1.30;;
11222;SDS011;5668;52.012;8.724;2023-03-11T14:37:26;5.17;;;1.40;;
11222;SDS011;5668;52.012;8.724;2023-03-11T14:39:57;2.43;;;1.50;;
11222;SDS011;5668;52.012;8.724;2023-03-11T14:42:25;3.23;;;1.60;;
11222;SDS011;5668;52.012;8.724;2023-03-11T14:44:56;2.97;;;1.60;;
11222;SDS011;5668;52.012;8.724;2023-03-11T14:47:32;4.77;;;1.57;;
11222;SDS011;5668;52.012;8.724;2023-03-11T14:50:04;2.10;;;1.40;;
11222;SDS011;5668;52.012;8.724;2023-03-11T14:52:36;2.77;;;1.33;;
11222;SDS011;5668;52.012;8.724;2023-03-11T14:55:11;2.83;;;1.43;;
11222;SDS011;5668;52.012;8.724;2023-03-11T14:57:41;3.87;;;1.50;;
11222;SDS011;5668;52.012;8.724;2023-03-11T15:00:15;2.50;;;1.50;;
11222;SDS011;5668;52.012;8.724;2023-03-11T15:02:57;2.57;;;1.40;;
11222;SDS011;5668;52.012;8.724;2023-03-11T15:05:32;2.87;;;1.30;;
11222;SDS011;5668;52.012;8.724;2023-03-11T15:08:03;2.07;;;1.30;;
11222;SDS011;5668;52.012;8.724;2023-03-11T15:10:32;2.70;;;1.03;;
11222;SDS011;5668;52.012;8.724;2023-03-11T15:13:08;1.47;;;1.20;;
11222;SDS011;5668;52.012;8.724;2023-03-11T15:15:39;1.53;;;1.00;;
11222;SDS011;5668;52.012;8.724;2023-03-11T15:18:18;1.63;;;1.03;;
11222;SDS011;5668;52.012;8.724;2023-03-11T15:20:59;3.37;;;1.20;;
11222;SDS011;5668;52.012;8.724;2023-03-11T15:23:32;2.63;;;1.20;;
11222;SDS011;5668;52.012;8.724;2023-03-11T15:26:00;6.47;;;1.40;;
11222;SDS011;5668;52.012;8.724;2023-03-11T15:28:31;2.93;;;1.13;;
11222;SDS011;5668;52.012;8.724;2023-03-11T15:31:12;4.60;;;1.30;;
11222;SDS011;5668;52.012;8.724;2023-03-11T15:33:43;3.73;;;1.30;;